sensor_id;sensor_type;location;lat;lon;timestamp;temperature;humidity
61255;DHT22;47128;47.530;8.584;2022-10-31T00:00:43;10.10;99.90
61255;DHT22;47128;47.530;8.584;2022-10-31T00:03:09;10.10;99.90
61255;DHT22;47128;47.530;8.584;2022-10-31T00:05:35;10.10;99.90
61255;DHT22;47128;47.530;8.584;2022-10-31T00:08:00;10.10;99.90
61255;DHT22;47128;47.530;8.584;2022-10-31T00:10:26;10.10;99.90
61255;DHT22;47128;47.530;8.584;2022-10-31T00:12:51;10.10;99.90
61255;DHT22;47128;47.530;8.584;2022-10-31T00:15:17;10.10;99.90
61255;DHT22;47128;47.530;8.584;2022-10-31T00:17:42;10.10;99.90
61255;DHT22;47128;47.530;8.584;2022-10-31T00:20:08;10.00;99.90
61255;DHT22;47128;47.530;8.584;2022-10-31T00:22:34;10.10;99.90
61255;DHT22;47128;47.530;8.584;2022-10-31T00:24:59;10.10;99.90
61255;DHT22;47128;47.530;8.584;2022-10-31T00:27:25;10.10;99.90
61255;DHT22;47128;47.530;8.584;2022-10-31T00:29:51;10.00;99.90
61255;DHT22;47128;47.530;8.584;2022-10-31T00:32:16;9.90;99.90
61255;DHT22;47128;47.530;8.584;2022-10-31T00:34:42;9.90;99.90
61255;DHT22;47128;47.530;8.584;2022-10-31T00:37:07;9.80;99.90
61255;DHT22;47128;47.530;8.584;2022-10-31T00:39:33;9.90;99.90
61255;DHT22;47128;47.530;8.584;2022-10-31T00:41:58;9.90;99.90
61255;DHT22;47128;47.530;8.584;2022-10-31T00:44:24;9.80;99.90
61255;DHT22;47128;47.530;8.584;2022-10-31T00:46:51;9.80;99.90
61255;DHT22;47128;47.530;8.584;2022-10-31T00:49:16;9.90;99.90
61255;DHT22;47128;47.530;8.584;2022-10-31T00:51:42;10.00;99.90
61255;DHT22;47128;47.530;8.584;2022-10-31T00:54:08;10.00;99.90
61255;DHT22;47128;47.530;8.584;2022-10-31T00:56:33;10.10;99.90
61255;DHT22;47128;47.530;8.584;2022-10-31T00:58:59;10.00;99.90
61255;DHT22;47128;47.530;8.584;2022-10-31T01:01:24;10.00;99.90
61255;DHT22;47128;47.530;8.584;2022-10-31T01:03:50;10.00;99.90
61255;DHT22;47128;47.530;8.584;2022-10-31T01:06:16;10.00;99.90
61255;DHT22;47128;47.530;8.584;2022-10-31T01:08:42;9.90;99.90
61255;DHT22;47128;47.530;8.584;2022-10-31T01:11:17;9.90;99.90
61255;DHT22;47128;47.530;8.584;2022-10-31T01:13:43;10.00;99.90
61255;DHT22;47128;47.530;8.584;2022-10-31T01:16:12;9.90;99.90
61255;DHT22;47128;47.530;8.584;2022-10-31T01:18:40;9.90;99.90
61255;DHT22;47128;47.530;8.584;2022-10-31T01:21:09;9.90;99.90
61255;DHT22;47128;47.530;8.584;2022-10-31T01:23:35;9.90;99.90
61255;DHT22;47128;47.530;8.584;2022-10-31T01:26:06;9.90;99.90
61255;DHT22;47128;47.530;8.584;2022-10-31T01:28:33;10.00;99.90
61255;DHT22;47128;47.530;8.584;2022-10-31T01:31:01;10.00;99.90
61255;DHT22;47128;47.530;8.584;2022-10-31T01:33:27;10.00;99.90
61255;DHT22;47128;47.530;8.584;2022-10-31T01:35:52;10.00;99.90
61255;DHT22;47128;47.530;8.584;2022-10-31T01:38:18;10.00;99.90
61255;DHT22;47128;47.530;8.584;2022-10-31T01:40:43;10.00;99.90
61255;DHT22;47128;47.530;8.584;2022-10-31T01:43:13;10.10;99.90
61255;DHT22;47128;47.530;8.584;2022-10-31T01:45:40;10.10;99.90
61255;DHT22;47128;47.530;8.584;2022-10-31T01:48:12;10.10;99.90
61255;DHT22;47128;47.530;8.584;2022-10-31T01:50:38;10.10;99.90
61255;DHT22;47128;47.530;8.584;2022-10-31T01:53:05;10.20;99.90
61255;DHT22;47128;47.530;8.584;2022-10-31T01:55:35;10.20;99.90
61255;DHT22;47128;47.530;8.584;2022-10-31T01:58:13;10.30;99.90
61255;DHT22;47128;47.530;8.584;2022-10-31T02:00:43;10.30;99.90
61255;DHT22;47128;47.530;8.584;2022-10-31T02:03:10;10.20;99.90
61255;DHT22;47128;47.530;8.584;2022-10-31T02:05:36;10.20;99.90
61255;DHT22;47128;47.530;8.584;2022-10-31T02:08:23;10.30;99.90
61255;DHT22;47128;47.530;8.584;2022-10-31T02:10:50;10.30;99.90
61255;DHT22;47128;47.530;8.584;2022-10-31T02:13:17;10.30;99.90
61255;DHT22;47128;47.530;8.584;2022-10-31T02:15:44;10.20;99.90
61255;DHT22;47128;47.530;8.584;2022-10-31T02:18:10;10.20;99.90
61255;DHT22;47128;47.530;8.584;2022-10-31T02:20:45;10.10;99.90
61255;DHT22;47128;47.530;8.584;2022-10-31T02:26:15;10.10;99.90
61255;DHT22;47128;47.530;8.584;2022-10-31T02:31:56;10.20;99.90
61255;DHT22;47128;47.530;8.584;2022-10-31T02:34:36;10.20;99.90
61255;DHT22;47128;47.530;8.584;2022-10-31T02:37:14;10.30;99.90
61255;DHT22;47128;47.530;8.584;2022-10-31T02:42:41;10.20;99.90
61255;DHT22;47128;47.530;8.584;2022-10-31T02:45:19;10.20;99.90
61255;DHT22;47128;47.530;8.584;2022-10-31T02:47:45;10.20;99.90
61255;DHT22;47128;47.530;8.584;2022-10-31T02:50:28;10.30;99.90
61255;DHT22;47128;47.530;8.584;2022-10-31T02:52:55;10.30;99.90
61255;DHT22;47128;47.530;8.584;2022-10-31T02:57:56;10.20;99.90
61255;DHT22;47128;47.530;8.584;2022-10-31T03:00:23;10.30;99.90
61255;DHT22;47128;47.530;8.584;2022-10-31T03:03:18;10.30;99.90
61255;DHT22;47128;47.530;8.584;2022-10-31T03:06:07;10.30;99.90
61255;DHT22;47128;47.530;8.584;2022-10-31T03:17:05;10.30;99.90
61255;DHT22;47128;47.530;8.584;2022-10-31T03:19:59;10.30;99.90
61255;DHT22;47128;47.530;8.584;2022-10-31T03:22:28;10.20;99.90
61255;DHT22;47128;47.530;8.584;2022-10-31T03:24:56;10.10;99.90
61255;DHT22;47128;47.530;8.584;2022-10-31T03:27:25;10.10;99.90
61255;DHT22;47128;47.530;8.584;2022-10-31T03:29:55;10.10;99.90
61255;DHT22;47128;47.530;8.584;2022-10-31T03:32:26;10.10;99.90
61255;DHT22;47128;47.530;8.584;2022-10-31T03:34:56;10.10;99.90
61255;DHT22;47128;47.530;8.584;2022-10-31T03:37:23;10.00;99.90
61255;DHT22;47128;47.530;8.584;2022-10-31T03:39:50;10.00;99.90
61255;DHT22;47128;47.530;8.584;2022-10-31T03:42:20;10.00;99.90
61255;DHT22;47128;47.530;8.584;2022-10-31T03:44:58;10.00;99.90
61255;DHT22;47128;47.530;8.584;2022-10-31T03:47:25;10.00;99.90
61255;DHT22;47128;47.530;8.584;2022-10-31T03:49:51;10.00;99.90
61255;DHT22;47128;47.530;8.584;2022-10-31T03:57:59;9.90;99.90
61255;DHT22;47128;47.530;8.584;2022-10-31T04:00:26;10.00;99.90
61255;DHT22;47128;47.530;8.584;2022-10-31T04:03:02;10.00;99.90
61255;DHT22;47128;47.530;8.584;2022-10-31T04:05:30;10.00;99.90
61255;DHT22;47128;47.530;8.584;2022-10-31T04:07:58;10.00;99.90
61255;DHT22;47128;47.530;8.584;2022-10-31T04:10:26;10.00;99.90
61255;DHT22;47128;47.530;8.584;2022-10-31T04:13:03;10.00;99.90
61255;DHT22;47128;47.530;8.584;2022-10-31T04:15:31;10.00;99.90
61255;DHT22;47128;47.530;8.584;2022-10-31T04:18:00;10.00;99.90
61255;DHT22;47128;47.530;8.584;2022-10-31T04:20:38;10.00;99.90
61255;DHT22;47128;47.530;8.584;2022-10-31T04:23:05;10.00;99.90
61255;DHT22;47128;47.530;8.584;2022-10-31T04:25:36;9.90;99.90
61255;DHT22;47128;47.530;8.584;2022-10-31T04:28:01;9.90;99.90
61255;DHT22;47128;47.530;8.584;2022-10-31T04:30:27;9.90;99.90
61255;DHT22;47128;47.530;8.584;2022-10-31T04:32:52;9.80;99.90
61255;DHT22;47128;47.530;8.584;2022-10-31T04:35:18;9.80;99.90
61255;DHT22;47128;47.530;8.584;2022-10-31T04:37:43;9.80;99.90
61255;DHT22;47128;47.530;8.584;2022-10-31T04:40:09;9.70;99.90
61255;DHT22;47128;47.530;8.584;2022-10-31T04:42:35;9.60;99.90
61255;DHT22;47128;47.530;8.584;2022-10-31T04:45:01;9.50;99.90
61255;DHT22;47128;47.530;8.584;2022-10-31T04:47:26;9.40;99.90
61255;DHT22;47128;47.530;8.584;2022-10-31T04:49:52;9.50;99.90
61255;DHT22;47128;47.530;8.584;2022-10-31T04:52:17;9.50;99.90
61255;DHT22;47128;47.530;8.584;2022-10-31T04:54:43;9.50;99.90
61255;DHT22;47128;47.530;8.584;2022-10-31T04:57:08;9.50;99.90
61255;DHT22;47128;47.530;8.584;2022-10-31T04:59:34;9.50;99.90
61255;DHT22;47128;47.530;8.584;2022-10-31T05:01:59;9.50;99.90
61255;DHT22;47128;47.530;8.584;2022-10-31T05:04:25;9.50;99.90
61255;DHT22;47128;47.530;8.584;2022-10-31T05:06:50;9.50;99.90
61255;DHT22;47128;47.530;8.584;2022-10-31T05:09:16;9.50;99.90
61255;DHT22;47128;47.530;8.584;2022-10-31T05:11:53;9.40;99.90
61255;DHT22;47128;47.530;8.584;2022-10-31T05:14:18;9.40;99.90
61255;DHT22;47128;47.530;8.584;2022-10-31T05:16:44;9.40;99.90
61255;DHT22;47128;47.530;8.584;2022-10-31T05:19:09;9.20;99.90
61255;DHT22;47128;47.530;8.584;2022-10-31T05:21:35;9.80;99.90
61255;DHT22;47128;47.530;8.584;2022-10-31T05:24:01;9.40;99.90
61255;DHT22;47128;47.530;8.584;2022-10-31T05:26:26;9.40;99.90
61255;DHT22;47128;47.530;8.584;2022-10-31T05:28:52;9.30;99.90
61255;DHT22;47128;47.530;8.584;2022-10-31T05:31:17;9.40;99.90
61255;DHT22;47128;47.530;8.584;2022-10-31T05:33:43;9.30;99.90
61255;DHT22;47128;47.530;8.584;2022-10-31T05:36:08;9.40;99.90
61255;DHT22;47128;47.530;8.584;2022-10-31T05:38:34;9.40;99.90
61255;DHT22;47128;47.530;8.584;2022-10-31T05:43:27;9.30;99.90
61255;DHT22;47128;47.530;8.584;2022-10-31T05:45:53;9.30;99.90
61255;DHT22;47128;47.530;8.584;2022-10-31T05:48:19;9.30;99.90
61255;DHT22;47128;47.530;8.584;2022-10-31T05:50:46;9.30;99.90
61255;DHT22;47128;47.530;8.584;2022-10-31T05:53:12;9.30;99.90
61255;DHT22;47128;47.530;8.584;2022-10-31T05:55:37;9.30;99.90
61255;DHT22;47128;47.530;8.584;2022-10-31T05:58:03;9.30;99.90
61255;DHT22;47128;47.530;8.584;2022-10-31T06:00:29;9.30;99.90
61255;DHT22;47128;47.530;8.584;2022-10-31T06:02:59;9.40;99.90
61255;DHT22;47128;47.530;8.584;2022-10-31T06:05:25;9.50;99.90
61255;DHT22;47128;47.530;8.584;2022-10-31T06:07:50;9.50;99.90
61255;DHT22;47128;47.530;8.584;2022-10-31T06:10:16;9.40;99.90
61255;DHT22;47128;47.530;8.584;2022-10-31T06:12:42;9.50;99.90
61255;DHT22;47128;47.530;8.584;2022-10-31T06:15:08;9.50;99.90
61255;DHT22;47128;47.530;8.584;2022-10-31T06:17:35;9.50;99.90
61255;DHT22;47128;47.530;8.584;2022-10-31T06:20:01;9.60;99.90
61255;DHT22;47128;47.530;8.584;2022-10-31T06:22:27;9.60;99.90
61255;DHT22;47128;47.530;8.584;2022-10-31T06:24:52;9.60;99.90
61255;DHT22;47128;47.530;8.584;2022-10-31T06:27:18;9.50;99.90
61255;DHT22;47128;47.530;8.584;2022-10-31T06:29:44;9.50;99.90
61255;DHT22;47128;47.530;8.584;2022-10-31T06:32:13;9.50;99.90
61255;DHT22;47128;47.530;8.584;2022-10-31T06:34:39;9.40;99.90
61255;DHT22;47128;47.530;8.584;2022-10-31T06:37:07;9.40;99.90
61255;DHT22;47128;47.530;8.584;2022-10-31T06:39:33;9.40;99.90
61255;DHT22;47128;47.530;8.584;2022-10-31T06:41:58;9.40;99.90
61255;DHT22;47128;47.530;8.584;2022-10-31T06:44:24;9.30;99.90
61255;DHT22;47128;47.530;8.584;2022-10-31T06:46:50;9.30;99.90
61255;DHT22;47128;47.530;8.584;2022-10-31T06:49:15;9.30;99.90
61255;DHT22;47128;47.530;8.584;2022-10-31T06:51:41;9.40;99.90
61255;DHT22;47128;47.530;8.584;2022-10-31T06:54:07;9.40;99.90
61255;DHT22;47128;47.530;8.584;2022-10-31T06:56:34;9.50;99.90
61255;DHT22;47128;47.530;8.584;2022-10-31T06:58:59;9.50;99.90
61255;DHT22;47128;47.530;8.584;2022-10-31T07:01:25;9.40;99.90
61255;DHT22;47128;47.530;8.584;2022-10-31T07:03:51;9.40;99.90
61255;DHT22;47128;47.530;8.584;2022-10-31T07:06:20;9.40;99.90
61255;DHT22;47128;47.530;8.584;2022-10-31T07:08:45;9.40;99.90
61255;DHT22;47128;47.530;8.584;2022-10-31T07:11:11;9.60;99.90
61255;DHT22;47128;47.530;8.584;2022-10-31T07:13:40;9.60;99.90
61255;DHT22;47128;47.530;8.584;2022-10-31T07:16:07;9.60;99.90
61255;DHT22;47128;47.530;8.584;2022-10-31T07:18:39;9.60;99.90
61255;DHT22;47128;47.530;8.584;2022-10-31T07:21:06;9.70;99.90
61255;DHT22;47128;47.530;8.584;2022-10-31T07:23:32;9.70;99.90
61255;DHT22;47128;47.530;8.584;2022-10-31T07:26:00;9.70;99.90
61255;DHT22;47128;47.530;8.584;2022-10-31T07:28:30;9.80;99.90
61255;DHT22;47128;47.530;8.584;2022-10-31T07:30:57;9.80;99.90
61255;DHT22;47128;47.530;8.584;2022-10-31T07:33:24;9.80;99.90
61255;DHT22;47128;47.530;8.584;2022-10-31T07:35:54;9.70;99.90
61255;DHT22;47128;47.530;8.584;2022-10-31T07:38:22;9.60;99.90
61255;DHT22;47128;47.530;8.584;2022-10-31T07:40:52;9.70;99.90
61255;DHT22;47128;47.530;8.584;2022-10-31T07:43:18;9.80;99.90
61255;DHT22;47128;47.530;8.584;2022-10-31T07:45:50;9.80;99.90
61255;DHT22;47128;47.530;8.584;2022-10-31T07:48:18;9.80;99.90
61255;DHT22;47128;47.530;8.584;2022-10-31T07:50:47;9.70;99.90
61255;DHT22;47128;47.530;8.584;2022-10-31T07:53:17;9.80;99.90
61255;DHT22;47128;47.530;8.584;2022-10-31T07:55:43;9.90;99.90
61255;DHT22;47128;47.530;8.584;2022-10-31T07:58:16;9.90;99.90
61255;DHT22;47128;47.530;8.584;2022-10-31T08:00:44;9.90;99.90
61255;DHT22;47128;47.530;8.584;2022-10-31T08:03:14;9.80;99.90
61255;DHT22;47128;47.530;8.584;2022-10-31T08:05:40;9.90;99.90
61255;DHT22;47128;47.530;8.584;2022-10-31T08:08:07;10.00;99.90
61255;DHT22;47128;47.530;8.584;2022-10-31T08:10:37;10.10;99.90
61255;DHT22;47128;47.530;8.584;2022-10-31T08:13:06;10.20;99.90
61255;DHT22;47128;47.530;8.584;2022-10-31T08:15:33;10.20;99.90
61255;DHT22;47128;47.530;8.584;2022-10-31T08:18:03;10.20;99.90
61255;DHT22;47128;47.530;8.584;2022-10-31T08:20:29;10.20;99.90
61255;DHT22;47128;47.530;8.584;2022-10-31T08:23:01;10.30;99.90
61255;DHT22;47128;47.530;8.584;2022-10-31T08:25:29;10.40;99.90
61255;DHT22;47128;47.530;8.584;2022-10-31T08:27:55;10.50;99.90
61255;DHT22;47128;47.530;8.584;2022-10-31T08:30:24;10.40;99.90
61255;DHT22;47128;47.530;8.584;2022-10-31T08:33:02;10.30;99.90
61255;DHT22;47128;47.530;8.584;2022-10-31T08:35:29;10.30;99.90
61255;DHT22;47128;47.530;8.584;2022-10-31T08:37:57;10.40;99.90
61255;DHT22;47128;47.530;8.584;2022-10-31T08:40:26;10.50;99.90
61255;DHT22;47128;47.530;8.584;2022-10-31T08:43:03;10.70;99.90
61255;DHT22;47128;47.530;8.584;2022-10-31T08:45:33;10.70;99.90
61255;DHT22;47128;47.530;8.584;2022-10-31T08:48:14;10.70;99.90
61255;DHT22;47128;47.530;8.584;2022-10-31T08:50:43;10.70;99.90
61255;DHT22;47128;47.530;8.584;2022-10-31T08:53:15;10.70;99.90
61255;DHT22;47128;47.530;8.584;2022-10-31T08:55:46;10.80;99.90
61255;DHT22;47128;47.530;8.584;2022-10-31T08:58:19;10.70;99.90
61255;DHT22;47128;47.530;8.584;2022-10-31T09:00:47;10.80;99.90
61255;DHT22;47128;47.530;8.584;2022-10-31T09:05:47;11.10;99.90
61255;DHT22;47128;47.530;8.584;2022-10-31T09:08:16;11.20;99.90
61255;DHT22;47128;47.530;8.584;2022-10-31T09:10:46;11.20;99.90
61255;DHT22;47128;47.530;8.584;2022-10-31T09:13:16;11.30;99.90
61255;DHT22;47128;47.530;8.584;2022-10-31T09:15:45;11.30;99.90
61255;DHT22;47128;47.530;8.584;2022-10-31T09:18:21;11.40;99.90
61255;DHT22;47128;47.530;8.584;2022-10-31T09:20:49;11.60;99.90
61255;DHT22;47128;47.530;8.584;2022-10-31T09:23:23;11.70;99.90
61255;DHT22;47128;47.530;8.584;2022-10-31T09:25:52;11.80;99.90
61255;DHT22;47128;47.530;8.584;2022-10-31T09:28:23;11.90;99.90
61255;DHT22;47128;47.530;8.584;2022-10-31T09:30:53;12.00;99.90
61255;DHT22;47128;47.530;8.584;2022-10-31T09:33:20;11.90;99.90
61255;DHT22;47128;47.530;8.584;2022-10-31T09:35:53;11.80;99.90
61255;DHT22;47128;47.530;8.584;2022-10-31T09:38:21;11.80;99.90
61255;DHT22;47128;47.530;8.584;2022-10-31T09:42:01;11.80;99.90
61255;DHT22;47128;47.530;8.584;2022-10-31T09:44:27;12.00;99.90
61255;DHT22;47128;47.530;8.584;2022-10-31T09:52:17;12.30;99.90
61255;DHT22;47128;47.530;8.584;2022-10-31T09:55:00;12.10;99.90
61255;DHT22;47128;47.530;8.584;2022-10-31T09:57:36;12.00;99.90
61255;DHT22;47128;47.530;8.584;2022-10-31T10:00:06;11.80;99.90
61255;DHT22;47128;47.530;8.584;2022-10-31T10:05:24;11.90;99.90
61255;DHT22;47128;47.530;8.584;2022-10-31T10:08:20;12.10;99.90
61255;DHT22;47128;47.530;8.584;2022-10-31T10:10:59;12.30;99.90
61255;DHT22;47128;47.530;8.584;2022-10-31T10:16:35;12.50;99.90
61255;DHT22;47128;47.530;8.584;2022-10-31T10:27:46;12.80;99.90
61255;DHT22;47128;47.530;8.584;2022-10-31T10:30:21;13.00;99.90
61255;DHT22;47128;47.530;8.584;2022-10-31T10:32:51;13.10;99.90
61255;DHT22;47128;47.530;8.584;2022-10-31T10:37:47;13.00;99.90
61255;DHT22;47128;47.530;8.584;2022-10-31T10:40:17;13.00;99.90
61255;DHT22;47128;47.530;8.584;2022-10-31T10:42:59;13.00;99.90
61255;DHT22;47128;47.530;8.584;2022-10-31T10:46:21;13.00;99.90
61255;DHT22;47128;47.530;8.584;2022-10-31T10:49:40;13.10;99.90
61255;DHT22;47128;47.530;8.584;2022-10-31T10:58:17;13.00;99.90
61255;DHT22;47128;47.530;8.584;2022-10-31T11:00:46;13.20;99.90
61255;DHT22;47128;47.530;8.584;2022-10-31T11:03:15;13.20;99.90
61255;DHT22;47128;47.530;8.584;2022-10-31T11:05:56;13.30;99.90
61255;DHT22;47128;47.530;8.584;2022-10-31T11:08:35;13.40;99.90
61255;DHT22;47128;47.530;8.584;2022-10-31T11:11:14;13.50;99.90
61255;DHT22;47128;47.530;8.584;2022-10-31T11:13:45;13.50;99.90
61255;DHT22;47128;47.530;8.584;2022-10-31T11:16:27;13.60;99.90
61255;DHT22;47128;47.530;8.584;2022-10-31T11:19:27;13.70;99.90
61255;DHT22;47128;47.530;8.584;2022-10-31T11:21:54;13.70;99.90
61255;DHT22;47128;47.530;8.584;2022-10-31T11:24:40;13.70;99.90
61255;DHT22;47128;47.530;8.584;2022-10-31T11:27:23;13.80;99.90
61255;DHT22;47128;47.530;8.584;2022-10-31T11:29:50;13.90;99.90
61255;DHT22;47128;47.530;8.584;2022-10-31T11:32:26;13.90;99.90
61255;DHT22;47128;47.530;8.584;2022-10-31T11:35:02;13.90;99.90
61255;DHT22;47128;47.530;8.584;2022-10-31T11:37:41;13.90;99.90
61255;DHT22;47128;47.530;8.584;2022-10-31T11:40:21;13.90;99.90
61255;DHT22;47128;47.530;8.584;2022-10-31T11:42:48;14.00;99.90
61255;DHT22;47128;47.530;8.584;2022-10-31T11:45:31;14.20;99.90
61255;DHT22;47128;47.530;8.584;2022-10-31T11:48:19;14.70;99.90
61255;DHT22;47128;47.530;8.584;2022-10-31T11:50:57;15.30;99.90
61255;DHT22;47128;47.530;8.584;2022-10-31T11:53:33;16.00;99.90
61255;DHT22;47128;47.530;8.584;2022-10-31T11:58:31;17.10;99.90
61255;DHT22;47128;47.530;8.584;2022-10-31T12:00:58;17.40;99.90
61255;DHT22;47128;47.530;8.584;2022-10-31T12:03:46;17.60;99.90
61255;DHT22;47128;47.530;8.584;2022-10-31T12:06:38;18.00;99.90
61255;DHT22;47128;47.530;8.584;2022-10-31T12:09:24;19.30;97.60
61255;DHT22;47128;47.530;8.584;2022-10-31T12:17:45;23.60;90.30
61255;DHT22;47128;47.530;8.584;2022-10-31T12:26:12;25.90;83.10
61255;DHT22;47128;47.530;8.584;2022-10-31T12:32:09;26.00;80.90
61255;DHT22;47128;47.530;8.584;2022-10-31T12:40:19;25.10;81.50
61255;DHT22;47128;47.530;8.584;2022-10-31T12:48:20;21.10;90.70
61255;DHT22;47128;47.530;8.584;2022-10-31T13:01:35;18.20;98.60
61255;DHT22;47128;47.530;8.584;2022-10-31T13:12:59;18.50;98.90
61255;DHT22;47128;47.530;8.584;2022-10-31T13:15:31;18.70;98.70
61255;DHT22;47128;47.530;8.584;2022-10-31T13:18:09;19.00;98.10
61255;DHT22;47128;47.530;8.584;2022-10-31T13:20:42;19.00;98.00
61255;DHT22;47128;47.530;8.584;2022-10-31T13:23:31;19.00;98.00
61255;DHT22;47128;47.530;8.584;2022-10-31T13:26:01;18.70;98.90
61255;DHT22;47128;47.530;8.584;2022-10-31T13:28:50;18.50;99.40
61255;DHT22;47128;47.530;8.584;2022-10-31T13:31:19;18.20;99.90
61255;DHT22;47128;47.530;8.584;2022-10-31T13:36:20;18.20;99.90
61255;DHT22;47128;47.530;8.584;2022-10-31T13:38:56;18.40;99.90
61255;DHT22;47128;47.530;8.584;2022-10-31T13:41:45;18.50;99.80
61255;DHT22;47128;47.530;8.584;2022-10-31T13:44:26;18.60;99.10
61255;DHT22;47128;47.530;8.584;2022-10-31T13:46:55;18.70;98.90
61255;DHT22;47128;47.530;8.584;2022-10-31T13:49:25;18.70;98.80
61255;DHT22;47128;47.530;8.584;2022-10-31T13:51:52;18.60;99.00
61255;DHT22;47128;47.530;8.584;2022-10-31T13:54:48;18.40;99.60
61255;DHT22;47128;47.530;8.584;2022-10-31T13:57:32;18.20;99.90
61255;DHT22;47128;47.530;8.584;2022-10-31T14:02:46;18.30;99.80
61255;DHT22;47128;47.530;8.584;2022-10-31T14:05:32;18.20;99.90
61255;DHT22;47128;47.530;8.584;2022-10-31T14:08:04;18.30;99.80
61255;DHT22;47128;47.530;8.584;2022-10-31T14:10:52;18.30;99.90
61255;DHT22;47128;47.530;8.584;2022-10-31T14:13:31;18.30;99.90
61255;DHT22;47128;47.530;8.584;2022-10-31T14:16:18;17.90;99.90
61255;DHT22;47128;47.530;8.584;2022-10-31T14:19:15;17.80;99.90
61255;DHT22;47128;47.530;8.584;2022-10-31T14:25:27;17.20;99.90
61255;DHT22;47128;47.530;8.584;2022-10-31T14:27:54;17.00;99.90
61255;DHT22;47128;47.530;8.584;2022-10-31T14:30:23;16.80;99.90
61255;DHT22;47128;47.530;8.584;2022-10-31T14:32:55;16.70;99.90
61255;DHT22;47128;47.530;8.584;2022-10-31T14:35:49;16.70;99.90
61255;DHT22;47128;47.530;8.584;2022-10-31T14:44:11;16.20;99.90
61255;DHT22;47128;47.530;8.584;2022-10-31T14:52:48;16.20;99.90
61255;DHT22;47128;47.530;8.584;2022-10-31T14:55:16;16.20;99.90
61255;DHT22;47128;47.530;8.584;2022-10-31T14:57:54;16.30;99.90
61255;DHT22;47128;47.530;8.584;2022-10-31T15:00:29;16.40;99.90
61255;DHT22;47128;47.530;8.584;2022-10-31T15:03:18;16.50;99.90
61255;DHT22;47128;47.530;8.584;2022-10-31T15:05:50;16.20;99.90
61255;DHT22;47128;47.530;8.584;2022-10-31T15:08:50;16.00;99.90
61255;DHT22;47128;47.530;8.584;2022-10-31T15:13:56;15.70;99.90
61255;DHT22;47128;47.530;8.584;2022-10-31T15:16:35;15.50;99.90
61255;DHT22;47128;47.530;8.584;2022-10-31T15:19:12;15.40;99.90
61255;DHT22;47128;47.530;8.584;2022-10-31T15:21:44;15.40;99.90
61255;DHT22;47128;47.530;8.584;2022-10-31T15:24:13;15.20;99.90
61255;DHT22;47128;47.530;8.584;2022-10-31T15:26:45;15.10;99.90
61255;DHT22;47128;47.530;8.584;2022-10-31T15:29:17;15.00;99.90
61255;DHT22;47128;47.530;8.584;2022-10-31T15:32:09;14.80;99.90
61255;DHT22;47128;47.530;8.584;2022-10-31T15:34:42;14.80;99.90
61255;DHT22;47128;47.530;8.584;2022-10-31T15:37:14;14.70;99.90
61255;DHT22;47128;47.530;8.584;2022-10-31T15:39:44;14.70;99.90
61255;DHT22;47128;47.530;8.584;2022-10-31T15:42:30;14.60;99.90
61255;DHT22;47128;47.530;8.584;2022-10-31T15:47:31;14.30;99.90
61255;DHT22;47128;47.530;8.584;2022-10-31T15:50:01;14.20;99.90
61255;DHT22;47128;47.530;8.584;2022-10-31T15:52:46;14.20;99.90
61255;DHT22;47128;47.530;8.584;2022-10-31T15:55:26;14.10;99.90
61255;DHT22;47128;47.530;8.584;2022-10-31T16:00:37;13.90;99.90
61255;DHT22;47128;47.530;8.584;2022-10-31T16:05:51;13.70;99.90
61255;DHT22;47128;47.530;8.584;2022-10-31T16:11:24;13.60;99.90
61255;DHT22;47128;47.530;8.584;2022-10-31T16:14:22;13.60;99.90
61255;DHT22;47128;47.530;8.584;2022-10-31T16:16:54;13.60;99.90
61255;DHT22;47128;47.530;8.584;2022-10-31T16:19:28;13.60;99.90
61255;DHT22;47128;47.530;8.584;2022-10-31T16:22:02;13.50;99.90
61255;DHT22;47128;47.530;8.584;2022-10-31T16:24:31;13.40;99.90
61255;DHT22;47128;47.530;8.584;2022-10-31T16:27:18;13.30;99.90
61255;DHT22;47128;47.530;8.584;2022-10-31T16:29:46;13.20;99.90
61255;DHT22;47128;47.530;8.584;2022-10-31T16:32:34;13.20;99.90
61255;DHT22;47128;47.530;8.584;2022-10-31T16:37:37;13.20;99.90
61255;DHT22;47128;47.530;8.584;2022-10-31T16:40:03;13.10;99.90
61255;DHT22;47128;47.530;8.584;2022-10-31T16:42:29;13.10;99.90
61255;DHT22;47128;47.530;8.584;2022-10-31T16:44:56;13.10;99.90
61255;DHT22;47128;47.530;8.584;2022-10-31T16:47:22;13.10;99.90
61255;DHT22;47128;47.530;8.584;2022-10-31T16:49:48;13.10;99.90
61255;DHT22;47128;47.530;8.584;2022-10-31T16:52:15;13.10;99.90
61255;DHT22;47128;47.530;8.584;2022-10-31T16:54:41;13.00;99.90
61255;DHT22;47128;47.530;8.584;2022-10-31T16:57:09;13.00;99.90
61255;DHT22;47128;47.530;8.584;2022-10-31T16:59:37;12.90;99.90
61255;DHT22;47128;47.530;8.584;2022-10-31T17:02:03;12.90;99.90
61255;DHT22;47128;47.530;8.584;2022-10-31T17:04:29;12.80;99.90
61255;DHT22;47128;47.530;8.584;2022-10-31T17:06:55;12.80;99.90
61255;DHT22;47128;47.530;8.584;2022-10-31T17:09:20;12.80;99.90
61255;DHT22;47128;47.530;8.584;2022-10-31T17:11:48;12.70;99.90
61255;DHT22;47128;47.530;8.584;2022-10-31T17:14:16;12.70;99.90
61255;DHT22;47128;47.530;8.584;2022-10-31T17:16:42;12.70;99.90
61255;DHT22;47128;47.530;8.584;2022-10-31T17:19:11;12.70;99.90
61255;DHT22;47128;47.530;8.584;2022-10-31T17:21:38;12.70;99.90
61255;DHT22;47128;47.530;8.584;2022-10-31T17:24:04;12.60;99.90
61255;DHT22;47128;47.530;8.584;2022-10-31T17:26:30;12.60;99.90
61255;DHT22;47128;47.530;8.584;2022-10-31T17:28:55;12.50;99.90
61255;DHT22;47128;47.530;8.584;2022-10-31T17:31:29;12.50;99.90
61255;DHT22;47128;47.530;8.584;2022-10-31T17:33:56;12.40;99.90
61255;DHT22;47128;47.530;8.584;2022-10-31T17:36:22;12.40;99.90
61255;DHT22;47128;47.530;8.584;2022-10-31T17:38:48;12.40;99.90
61255;DHT22;47128;47.530;8.584;2022-10-31T17:41:13;12.40;99.90
61255;DHT22;47128;47.530;8.584;2022-10-31T17:43:39;12.40;99.90
61255;DHT22;47128;47.530;8.584;2022-10-31T17:46:05;12.30;99.90
61255;DHT22;47128;47.530;8.584;2022-10-31T17:48:34;12.20;99.90
61255;DHT22;47128;47.530;8.584;2022-10-31T17:51:04;12.20;99.90
61255;DHT22;47128;47.530;8.584;2022-10-31T17:53:32;12.30;99.90
61255;DHT22;47128;47.530;8.584;2022-10-31T17:56:06;12.30;99.90
61255;DHT22;47128;47.530;8.584;2022-10-31T17:58:34;12.30;99.90
61255;DHT22;47128;47.530;8.584;2022-10-31T18:01:00;12.30;99.90
61255;DHT22;47128;47.530;8.584;2022-10-31T18:03:26;12.30;99.90
61255;DHT22;47128;47.530;8.584;2022-10-31T18:05:56;12.20;99.90
61255;DHT22;47128;47.530;8.584;2022-10-31T18:08:27;12.20;99.90
61255;DHT22;47128;47.530;8.584;2022-10-31T18:10:53;12.20;99.90
61255;DHT22;47128;47.530;8.584;2022-10-31T18:13:20;12.10;99.90
61255;DHT22;47128;47.530;8.584;2022-10-31T18:15:46;12.10;99.90
61255;DHT22;47128;47.530;8.584;2022-10-31T18:18:13;12.10;99.90
61255;DHT22;47128;47.530;8.584;2022-10-31T18:20:39;12.00;99.90
61255;DHT22;47128;47.530;8.584;2022-10-31T18:23:05;12.00;99.90